sensor_id;sensor_type;location;lat;lon;timestamp;temperature;humidity
15259;DHT22;34462;51.368;12.364;2022-11-28T00:01:36;3.60;99.90
15259;DHT22;34462;51.368;12.364;2022-11-28T00:04:07;3.60;99.90
15259;DHT22;34462;51.368;12.364;2022-11-28T00:06:37;3.60;99.90
15259;DHT22;34462;51.368;12.364;2022-11-28T00:09:07;3.60;99.90
15259;DHT22;34462;51.368;12.364;2022-11-28T00:11:38;3.50;99.90
15259;DHT22;34462;51.368;12.364;2022-11-28T00:14:07;3.50;99.90
15259;DHT22;34462;51.368;12.364;2022-11-28T00:16:36;3.50;99.90
15259;DHT22;34462;51.368;12.364;2022-11-28T00:19:06;3.50;99.90
15259;DHT22;34462;51.368;12.364;2022-11-28T00:21:35;3.40;99.90
15259;DHT22;34462;51.368;12.364;2022-11-28T00:24:04;3.40;99.90
15259;DHT22;34462;51.368;12.364;2022-11-28T00:26:35;3.40;99.90
15259;DHT22;34462;51.368;12.364;2022-11-28T00:29:06;3.30;99.90
15259;DHT22;34462;51.368;12.364;2022-11-28T00:31:39;3.30;99.90
15259;DHT22;34462;51.368;12.364;2022-11-28T00:34:11;3.30;99.90
15259;DHT22;34462;51.368;12.364;2022-11-28T00:36:41;3.20;99.90
15259;DHT22;34462;51.368;12.364;2022-11-28T00:39:11;3.20;99.90
15259;DHT22;34462;51.368;12.364;2022-11-28T00:41:39;3.20;99.90
15259;DHT22;34462;51.368;12.364;2022-11-28T00:44:08;3.30;99.90
15259;DHT22;34462;51.368;12.364;2022-11-28T00:46:37;3.30;99.90
15259;DHT22;34462;51.368;12.364;2022-11-28T00:49:07;3.30;99.90
15259;DHT22;34462;51.368;12.364;2022-11-28T00:51:35;3.30;99.90
15259;DHT22;34462;51.368;12.364;2022-11-28T00:54:04;3.30;99.90
15259;DHT22;34462;51.368;12.364;2022-11-28T00:56:37;3.30;99.90
15259;DHT22;34462;51.368;12.364;2022-11-28T00:59:07;3.30;99.90
15259;DHT22;34462;51.368;12.364;2022-11-28T01:01:37;3.30;99.90
15259;DHT22;34462;51.368;12.364;2022-11-28T01:04:11;3.30;99.90
15259;DHT22;34462;51.368;12.364;2022-11-28T01:06:43;3.30;99.90
15259;DHT22;34462;51.368;12.364;2022-11-28T01:09:17;3.30;99.90
15259;DHT22;34462;51.368;12.364;2022-11-28T01:11:48;3.30;99.90
15259;DHT22;34462;51.368;12.364;2022-11-28T01:14:18;3.30;99.90
15259;DHT22;34462;51.368;12.364;2022-11-28T01:16:49;3.30;99.90
15259;DHT22;34462;51.368;12.364;2022-11-28T01:19:17;3.30;99.90
15259;DHT22;34462;51.368;12.364;2022-11-28T01:21:47;3.30;99.90
15259;DHT22;34462;51.368;12.364;2022-11-28T01:24:15;3.30;99.90
15259;DHT22;34462;51.368;12.364;2022-11-28T01:26:43;3.40;99.90
15259;DHT22;34462;51.368;12.364;2022-11-28T01:29:12;3.40;99.90
15259;DHT22;34462;51.368;12.364;2022-11-28T01:31:41;3.30;99.90
15259;DHT22;34462;51.368;12.364;2022-11-28T01:34:11;3.40;99.90
15259;DHT22;34462;51.368;12.364;2022-11-28T01:36:39;3.40;99.90
15259;DHT22;34462;51.368;12.364;2022-11-28T01:39:07;3.50;99.90
15259;DHT22;34462;51.368;12.364;2022-11-28T01:41:36;3.40;99.90
15259;DHT22;34462;51.368;12.364;2022-11-28T01:44:56;3.40;99.90
15259;DHT22;34462;51.368;12.364;2022-11-28T01:47:14;3.50;99.90
15259;DHT22;34462;51.368;12.364;2022-11-28T01:49:49;3.50;99.90
15259;DHT22;34462;51.368;12.364;2022-11-28T01:52:19;3.50;99.90
15259;DHT22;34462;51.368;12.364;2022-11-28T01:54:52;3.60;99.90
15259;DHT22;34462;51.368;12.364;2022-11-28T01:57:25;3.60;99.90
15259;DHT22;34462;51.368;12.364;2022-11-28T01:59:57;3.70;99.90
15259;DHT22;34462;51.368;12.364;2022-11-28T02:02:33;3.70;99.90
15259;DHT22;34462;51.368;12.364;2022-11-28T02:05:07;3.70;99.90
15259;DHT22;34462;51.368;12.364;2022-11-28T02:07:36;3.70;99.90
15259;DHT22;34462;51.368;12.364;2022-11-28T02:10:08;3.80;99.90
15259;DHT22;34462;51.368;12.364;2022-11-28T02:13:05;3.80;99.90
15259;DHT22;34462;51.368;12.364;2022-11-28T02:16:01;3.80;99.90
15259;DHT22;34462;51.368;12.364;2022-11-28T02:18:53;3.80;99.90
15259;DHT22;34462;51.368;12.364;2022-11-28T02:21:35;3.80;99.90
15259;DHT22;34462;51.368;12.364;2022-11-28T02:24:33;3.90;99.90
15259;DHT22;34462;51.368;12.364;2022-11-28T02:27:20;3.80;99.90
15259;DHT22;34462;51.368;12.364;2022-11-28T02:30:07;3.70;99.90
15259;DHT22;34462;51.368;12.364;2022-11-28T02:32:54;3.70;99.90
15259;DHT22;34462;51.368;12.364;2022-11-28T02:35:36;3.70;99.90
15259;DHT22;34462;51.368;12.364;2022-11-28T02:38:16;3.60;99.90
15259;DHT22;34462;51.368;12.364;2022-11-28T02:40:56;3.60;99.90
15259;DHT22;34462;51.368;12.364;2022-11-28T02:43:32;3.50;99.90
15259;DHT22;34462;51.368;12.364;2022-11-28T02:46:11;3.60;99.90
15259;DHT22;34462;51.368;12.364;2022-11-28T02:48:49;3.60;99.90
15259;DHT22;34462;51.368;12.364;2022-11-28T02:51:25;3.60;99.90
15259;DHT22;34462;51.368;12.364;2022-11-28T02:53:59;3.60;99.90
15259;DHT22;34462;51.368;12.364;2022-11-28T02:56:30;3.50;99.90
15259;DHT22;34462;51.368;12.364;2022-11-28T02:58:58;3.60;99.90
15259;DHT22;34462;51.368;12.364;2022-11-28T03:01:30;3.60;99.90
15259;DHT22;34462;51.368;12.364;2022-11-28T03:04:18;3.60;99.90
15259;DHT22;34462;51.368;12.364;2022-11-28T03:07:02;3.60;99.90
15259;DHT22;34462;51.368;12.364;2022-11-28T03:10:06;3.70;99.90
15259;DHT22;34462;51.368;12.364;2022-11-28T03:12:50;3.70;99.90
15259;DHT22;34462;51.368;12.364;2022-11-28T03:15:31;3.80;99.90
15259;DHT22;34462;51.368;12.364;2022-11-28T03:18:14;3.70;99.90
15259;DHT22;34462;51.368;12.364;2022-11-28T03:20:54;3.80;99.90
15259;DHT22;34462;51.368;12.364;2022-11-28T03:23:30;3.70;99.90
15259;DHT22;34462;51.368;12.364;2022-11-28T03:26:08;3.70;99.90
15259;DHT22;34462;51.368;12.364;2022-11-28T03:28:45;3.80;99.90
15259;DHT22;34462;51.368;12.364;2022-11-28T03:31:22;3.80;99.90
15259;DHT22;34462;51.368;12.364;2022-11-28T03:33:54;3.80;99.90
15259;DHT22;34462;51.368;12.364;2022-11-28T03:36:28;3.80;99.90
15259;DHT22;34462;51.368;12.364;2022-11-28T03:39:02;3.80;99.90
15259;DHT22;34462;51.368;12.364;2022-11-28T03:41:40;3.90;99.90
15259;DHT22;34462;51.368;12.364;2022-11-28T03:44:17;3.90;99.90
15259;DHT22;34462;51.368;12.364;2022-11-28T03:46:51;3.90;99.90
15259;DHT22;34462;51.368;12.364;2022-11-28T03:49:28;3.80;99.90
15259;DHT22;34462;51.368;12.364;2022-11-28T03:52:03;3.80;99.90
15259;DHT22;34462;51.368;12.364;2022-11-28T03:54:34;3.80;99.90
15259;DHT22;34462;51.368;12.364;2022-11-28T03:57:10;3.80;99.90
15259;DHT22;34462;51.368;12.364;2022-11-28T03:59:45;3.80;99.90
15259;DHT22;34462;51.368;12.364;2022-11-28T04:02:20;3.80;99.90
15259;DHT22;34462;51.368;12.364;2022-11-28T04:04:59;3.80;99.90
15259;DHT22;34462;51.368;12.364;2022-11-28T04:07:37;3.80;99.90
15259;DHT22;34462;51.368;12.364;2022-11-28T04:10:14;3.70;99.90
15259;DHT22;34462;51.368;12.364;2022-11-28T04:12:54;3.70;99.90
15259;DHT22;34462;51.368;12.364;2022-11-28T04:15:31;3.70;99.90
15259;DHT22;34462;51.368;12.364;2022-11-28T04:18:20;3.70;99.90
15259;DHT22;34462;51.368;12.364;2022-11-28T04:20:56;3.70;99.90
15259;DHT22;34462;51.368;12.364;2022-11-28T04:23:33;3.70;99.90
15259;DHT22;34462;51.368;12.364;2022-11-28T04:26:08;3.80;99.90
15259;DHT22;34462;51.368;12.364;2022-11-28T04:28:41;3.80;99.90
15259;DHT22;34462;51.368;12.364;2022-11-28T04:31:12;3.80;99.90
15259;DHT22;34462;51.368;12.364;2022-11-28T04:33:48;3.90;99.90
15259;DHT22;34462;51.368;12.364;2022-11-28T04:36:21;3.90;99.90
15259;DHT22;34462;51.368;12.364;2022-11-28T04:38:54;4.00;99.90
15259;DHT22;34462;51.368;12.364;2022-11-28T04:41:30;4.00;99.90
15259;DHT22;34462;51.368;12.364;2022-11-28T04:44:05;4.00;99.90
15259;DHT22;34462;51.368;12.364;2022-11-28T04:46:41;3.90;99.90
15259;DHT22;34462;51.368;12.364;2022-11-28T04:49:13;3.90;99.90
15259;DHT22;34462;51.368;12.364;2022-11-28T04:51:45;4.00;99.90
15259;DHT22;34462;51.368;12.364;2022-11-28T04:54:23;4.00;99.90
15259;DHT22;34462;51.368;12.364;2022-11-28T04:56:59;3.90;99.90
15259;DHT22;34462;51.368;12.364;2022-11-28T04:59:31;4.00;99.90
15259;DHT22;34462;51.368;12.364;2022-11-28T05:02:02;4.00;99.90
15259;DHT22;34462;51.368;12.364;2022-11-28T05:04:36;4.00;99.90
15259;DHT22;34462;51.368;12.364;2022-11-28T05:07:06;4.00;99.90
15259;DHT22;34462;51.368;12.364;2022-11-28T05:09:36;4.00;99.90
15259;DHT22;34462;51.368;12.364;2022-11-28T05:12:05;4.00;99.90
15259;DHT22;34462;51.368;12.364;2022-11-28T05:14:35;4.00;99.90
15259;DHT22;34462;51.368;12.364;2022-11-28T05:17:03;4.00;99.90
15259;DHT22;34462;51.368;12.364;2022-11-28T05:19:31;4.10;99.90
15259;DHT22;34462;51.368;12.364;2022-11-28T05:21:59;4.10;99.90
15259;DHT22;34462;51.368;12.364;2022-11-28T05:24:27;4.10;99.90
15259;DHT22;34462;51.368;12.364;2022-11-28T05:27:09;4.00;99.90
15259;DHT22;34462;51.368;12.364;2022-11-28T05:29:37;4.10;99.90
15259;DHT22;34462;51.368;12.364;2022-11-28T05:32:15;4.10;99.90
15259;DHT22;34462;51.368;12.364;2022-11-28T05:34:43;4.30;99.90
15259;DHT22;34462;51.368;12.364;2022-11-28T05:37:11;4.20;99.90
15259;DHT22;34462;51.368;12.364;2022-11-28T05:39:39;4.10;99.90
15259;DHT22;34462;51.368;12.364;2022-11-28T05:42:09;4.00;99.90
15259;DHT22;34462;51.368;12.364;2022-11-28T05:44:37;4.00;99.90
15259;DHT22;34462;51.368;12.364;2022-11-28T05:47:06;4.00;99.90
15259;DHT22;34462;51.368;12.364;2022-11-28T05:49:34;4.00;99.90
15259;DHT22;34462;51.368;12.364;2022-11-28T05:52:02;4.00;99.90
15259;DHT22;34462;51.368;12.364;2022-11-28T05:54:30;4.00;99.90
15259;DHT22;34462;51.368;12.364;2022-11-28T05:56:58;4.00;99.90
15259;DHT22;34462;51.368;12.364;2022-11-28T05:59:29;4.10;99.90
15259;DHT22;34462;51.368;12.364;2022-11-28T06:01:58;4.20;99.90
15259;DHT22;34462;51.368;12.364;2022-11-28T06:04:26;4.20;99.90
15259;DHT22;34462;51.368;12.364;2022-11-28T06:06:54;4.10;99.90
15259;DHT22;34462;51.368;12.364;2022-11-28T06:09:23;4.10;99.90
15259;DHT22;34462;51.368;12.364;2022-11-28T06:11:52;4.10;99.90
15259;DHT22;34462;51.368;12.364;2022-11-28T06:14:20;4.10;99.90
15259;DHT22;34462;51.368;12.364;2022-11-28T06:16:49;4.20;99.90
15259;DHT22;34462;51.368;12.364;2022-11-28T06:19:17;4.20;99.90
15259;DHT22;34462;51.368;12.364;2022-11-28T06:21:48;4.20;99.90
15259;DHT22;34462;51.368;12.364;2022-11-28T06:24:16;4.20;99.90
15259;DHT22;34462;51.368;12.364;2022-11-28T06:26:45;4.30;99.90
15259;DHT22;34462;51.368;12.364;2022-11-28T06:29:13;4.40;99.90
15259;DHT22;34462;51.368;12.364;2022-11-28T06:31:41;4.40;99.90
15259;DHT22;34462;51.368;12.364;2022-11-28T06:34:11;4.30;99.90
15259;DHT22;34462;51.368;12.364;2022-11-28T06:36:39;4.40;99.90
15259;DHT22;34462;51.368;12.364;2022-11-28T06:39:10;4.40;99.90
15259;DHT22;34462;51.368;12.364;2022-11-28T06:41:40;4.40;99.90
15259;DHT22;34462;51.368;12.364;2022-11-28T06:44:12;4.40;99.90
15259;DHT22;34462;51.368;12.364;2022-11-28T06:46:41;4.40;99.90
15259;DHT22;34462;51.368;12.364;2022-11-28T06:49:12;4.40;99.90
15259;DHT22;34462;51.368;12.364;2022-11-28T06:51:41;4.30;99.90
15259;DHT22;34462;51.368;12.364;2022-11-28T06:54:11;4.30;99.90
15259;DHT22;34462;51.368;12.364;2022-11-28T06:56:39;4.30;99.90
15259;DHT22;34462;51.368;12.364;2022-11-28T06:59:10;4.40;99.90
15259;DHT22;34462;51.368;12.364;2022-11-28T07:01:38;4.30;99.90
15259;DHT22;34462;51.368;12.364;2022-11-28T07:04:07;4.40;99.90
15259;DHT22;34462;51.368;12.364;2022-11-28T07:06:37;4.40;99.90
15259;DHT22;34462;51.368;12.364;2022-11-28T07:09:05;4.40;99.90
15259;DHT22;34462;51.368;12.364;2022-11-28T07:11:33;4.50;99.90
15259;DHT22;34462;51.368;12.364;2022-11-28T07:14:02;4.50;99.90
15259;DHT22;34462;51.368;12.364;2022-11-28T07:16:32;4.50;99.90
15259;DHT22;34462;51.368;12.364;2022-11-28T07:19:00;4.60;99.90
15259;DHT22;34462;51.368;12.364;2022-11-28T07:21:29;4.60;99.90
15259;DHT22;34462;51.368;12.364;2022-11-28T07:23:59;4.60;99.90
15259;DHT22;34462;51.368;12.364;2022-11-28T07:26:28;4.70;99.90
15259;DHT22;34462;51.368;12.364;2022-11-28T07:28:56;4.80;99.90
15259;DHT22;34462;51.368;12.364;2022-11-28T07:31:25;4.80;99.90
15259;DHT22;34462;51.368;12.364;2022-11-28T07:33:59;4.80;99.90
15259;DHT22;34462;51.368;12.364;2022-11-28T07:36:29;4.90;99.90
15259;DHT22;34462;51.368;12.364;2022-11-28T07:39:01;4.90;99.90
15259;DHT22;34462;51.368;12.364;2022-11-28T07:41:30;4.90;99.90
15259;DHT22;34462;51.368;12.364;2022-11-28T07:44:00;5.00;99.90
15259;DHT22;34462;51.368;12.364;2022-11-28T07:46:31;5.00;99.90
15259;DHT22;34462;51.368;12.364;2022-11-28T07:49:00;5.10;99.90
15259;DHT22;34462;51.368;12.364;2022-11-28T07:51:31;5.00;99.90
15259;DHT22;34462;51.368;12.364;2022-11-28T07:54:03;5.00;99.90
15259;DHT22;34462;51.368;12.364;2022-11-28T07:56:34;5.00;99.90
15259;DHT22;34462;51.368;12.364;2022-11-28T07:59:23;5.00;99.90
15259;DHT22;34462;51.368;12.364;2022-11-28T08:01:51;5.00;99.90
15259;DHT22;34462;51.368;12.364;2022-11-28T08:04:20;5.00;99.90
15259;DHT22;34462;51.368;12.364;2022-11-28T08:06:49;5.00;99.90
15259;DHT22;34462;51.368;12.364;2022-11-28T08:09:18;5.00;99.90
15259;DHT22;34462;51.368;12.364;2022-11-28T08:11:47;5.00;99.90
15259;DHT22;34462;51.368;12.364;2022-11-28T08:14:16;5.00;99.90
15259;DHT22;34462;51.368;12.364;2022-11-28T08:16:45;5.00;99.90
15259;DHT22;34462;51.368;12.364;2022-11-28T08:19:15;5.00;99.90
15259;DHT22;34462;51.368;12.364;2022-11-28T08:21:50;5.10;99.90
15259;DHT22;34462;51.368;12.364;2022-11-28T08:24:19;5.00;99.90
15259;DHT22;34462;51.368;12.364;2022-11-28T08:26:48;5.00;99.90
15259;DHT22;34462;51.368;12.364;2022-11-28T08:29:16;5.00;99.90
15259;DHT22;34462;51.368;12.364;2022-11-28T08:31:44;5.10;99.90
15259;DHT22;34462;51.368;12.364;2022-11-28T08:34:12;5.10;99.90
15259;DHT22;34462;51.368;12.364;2022-11-28T08:36:41;5.20;99.90
15259;DHT22;34462;51.368;12.364;2022-11-28T08:39:09;5.20;99.90
15259;DHT22;34462;51.368;12.364;2022-11-28T08:41:55;5.20;99.90
15259;DHT22;34462;51.368;12.364;2022-11-28T08:44:25;5.20;99.90
15259;DHT22;34462;51.368;12.364;2022-11-28T08:46:56;5.30;99.90
15259;DHT22;34462;51.368;12.364;2022-11-28T08:49:24;5.40;99.90
15259;DHT22;34462;51.368;12.364;2022-11-28T08:51:52;5.40;99.90
15259;DHT22;34462;51.368;12.364;2022-11-28T08:54:20;5.40;99.90
15259;DHT22;34462;51.368;12.364;2022-11-28T08:56:48;5.40;99.90
15259;DHT22;34462;51.368;12.364;2022-11-28T08:59:19;5.40;99.90
15259;DHT22;34462;51.368;12.364;2022-11-28T09:01:47;5.50;99.90
15259;DHT22;34462;51.368;12.364;2022-11-28T09:04:16;5.60;99.90
15259;DHT22;34462;51.368;12.364;2022-11-28T09:06:44;5.50;99.90
15259;DHT22;34462;51.368;12.364;2022-11-28T09:09:12;5.50;99.90
15259;DHT22;34462;51.368;12.364;2022-11-28T09:11:41;5.50;99.90
15259;DHT22;34462;51.368;12.364;2022-11-28T09:14:09;5.50;99.90
15259;DHT22;34462;51.368;12.364;2022-11-28T09:16:40;5.50;99.90
15259;DHT22;34462;51.368;12.364;2022-11-28T09:19:08;5.60;99.90
15259;DHT22;34462;51.368;12.364;2022-11-28T09:21:36;5.70;99.90
15259;DHT22;34462;51.368;12.364;2022-11-28T09:24:07;5.70;99.90
15259;DHT22;34462;51.368;12.364;2022-11-28T09:26:35;5.80;99.90
15259;DHT22;34462;51.368;12.364;2022-11-28T09:29:03;5.80;99.90
15259;DHT22;34462;51.368;12.364;2022-11-28T09:31:32;5.90;99.90
15259;DHT22;34462;51.368;12.364;2022-11-28T09:34:01;6.00;99.90
15259;DHT22;34462;51.368;12.364;2022-11-28T09:36:31;6.00;99.90
15259;DHT22;34462;51.368;12.364;2022-11-28T09:38:59;6.10;99.90
15259;DHT22;34462;51.368;12.364;2022-11-28T09:41:37;6.20;99.90
15259;DHT22;34462;51.368;12.364;2022-11-28T09:44:15;6.20;99.90
15259;DHT22;34462;51.368;12.364;2022-11-28T09:46:49;6.30;99.90
15259;DHT22;34462;51.368;12.364;2022-11-28T09:49:30;6.30;99.90
15259;DHT22;34462;51.368;12.364;2022-11-28T09:52:15;6.40;99.90
15259;DHT22;34462;51.368;12.364;2022-11-28T09:55:03;6.40;99.90
15259;DHT22;34462;51.368;12.364;2022-11-28T09:57:44;6.50;99.90
15259;DHT22;34462;51.368;12.364;2022-11-28T10:00:16;6.60;99.90
15259;DHT22;34462;51.368;12.364;2022-11-28T10:03:09;6.60;99.90
15259;DHT22;34462;51.368;12.364;2022-11-28T10:05:54;6.60;99.90
15259;DHT22;34462;51.368;12.364;2022-11-28T10:08:40;6.70;99.90
15259;DHT22;34462;51.368;12.364;2022-11-28T10:11:22;6.60;99.90
15259;DHT22;34462;51.368;12.364;2022-11-28T10:14:01;6.60;99.90
15259;DHT22;34462;51.368;12.364;2022-11-28T10:16:51;6.60;99.90
15259;DHT22;34462;51.368;12.364;2022-11-28T10:19:33;6.60;99.90
15259;DHT22;34462;51.368;12.364;2022-11-28T10:22:32;6.80;99.90
15259;DHT22;34462;51.368;12.364;2022-11-28T10:25:10;6.90;99.90
15259;DHT22;34462;51.368;12.364;2022-11-28T10:27:44;7.00;99.90
15259;DHT22;34462;51.368;12.364;2022-11-28T10:30:19;7.00;99.90
15259;DHT22;34462;51.368;12.364;2022-11-28T10:32:58;7.00;99.90
15259;DHT22;34462;51.368;12.364;2022-11-28T10:35:36;7.10;99.90
15259;DHT22;34462;51.368;12.364;2022-11-28T10:38:11;7.10;99.90
15259;DHT22;34462;51.368;12.364;2022-11-28T10:40:45;7.10;99.90
15259;DHT22;34462;51.368;12.364;2022-11-28T10:43:26;7.10;99.90
15259;DHT22;34462;51.368;12.364;2022-11-28T10:46:09;7.10;99.90
15259;DHT22;34462;51.368;12.364;2022-11-28T10:48:58;7.00;99.90
15259;DHT22;34462;51.368;12.364;2022-11-28T10:51:42;7.00;99.90
15259;DHT22;34462;51.368;12.364;2022-11-28T10:54:26;7.00;99.90
15259;DHT22;34462;51.368;12.364;2022-11-28T10:57:16;7.00;99.90
15259;DHT22;34462;51.368;12.364;2022-11-28T11:00:00;7.00;99.90
15259;DHT22;34462;51.368;12.364;2022-11-28T11:02:36;6.90;99.90
15259;DHT22;34462;51.368;12.364;2022-11-28T11:05:13;7.00;99.90
15259;DHT22;34462;51.368;12.364;2022-11-28T11:07:47;7.00;99.90
15259;DHT22;34462;51.368;12.364;2022-11-28T11:10:24;7.10;99.90
15259;DHT22;34462;51.368;12.364;2022-11-28T11:12:57;7.10;99.90
15259;DHT22;34462;51.368;12.364;2022-11-28T11:15:30;7.10;99.90
15259;DHT22;34462;51.368;12.364;2022-11-28T11:18:03;7.10;99.90
15259;DHT22;34462;51.368;12.364;2022-11-28T11:20:45;7.10;99.90
15259;DHT22;34462;51.368;12.364;2022-11-28T11:23:16;7.20;99.90
15259;DHT22;34462;51.368;12.364;2022-11-28T11:25:52;7.30;99.90
15259;DHT22;34462;51.368;12.364;2022-11-28T11:28:39;7.20;99.90
15259;DHT22;34462;51.368;12.364;2022-11-28T11:31:18;7.20;99.90
15259;DHT22;34462;51.368;12.364;2022-11-28T11:33:51;7.20;99.90
15259;DHT22;34462;51.368;12.364;2022-11-28T11:36:29;7.10;99.90
15259;DHT22;34462;51.368;12.364;2022-11-28T11:39:15;7.10;99.90
15259;DHT22;34462;51.368;12.364;2022-11-28T11:41:50;7.00;99.90
15259;DHT22;34462;51.368;12.364;2022-11-28T11:44:37;7.00;99.90
15259;DHT22;34462;51.368;12.364;2022-11-28T11:47:08;7.10;99.90
15259;DHT22;34462;51.368;12.364;2022-11-28T11:49:39;7.20;99.90
15259;DHT22;34462;51.368;12.364;2022-11-28T11:52:16;7.10;99.90
15259;DHT22;34462;51.368;12.364;2022-11-28T11:54:57;7.10;99.90
15259;DHT22;34462;51.368;12.364;2022-11-28T11:57:35;7.10;99.90
15259;DHT22;34462;51.368;12.364;2022-11-28T12:00:09;7.10;99.90
15259;DHT22;34462;51.368;12.364;2022-11-28T12:02:44;7.10;99.90
15259;DHT22;34462;51.368;12.364;2022-11-28T12:05:16;7.10;99.90
15259;DHT22;34462;51.368;12.364;2022-11-28T12:07:52;7.10;99.90
15259;DHT22;34462;51.368;12.364;2022-11-28T12:10:26;7.10;99.90
15259;DHT22;34462;51.368;12.364;2022-11-28T12:12:57;7.00;99.90
15259;DHT22;34462;51.368;12.364;2022-11-28T12:15:33;7.00;99.90
15259;DHT22;34462;51.368;12.364;2022-11-28T12:18:19;7.10;99.90
15259;DHT22;34462;51.368;12.364;2022-11-28T12:21:05;7.10;99.90
15259;DHT22;34462;51.368;12.364;2022-11-28T12:24:05;7.00;99.90
15259;DHT22;34462;51.368;12.364;2022-11-28T12:26:44;7.00;99.90
15259;DHT22;34462;51.368;12.364;2022-11-28T12:29:35;7.10;99.90
15259;DHT22;34462;51.368;12.364;2022-11-28T12:32:20;7.00;99.90
15259;DHT22;34462;51.368;12.364;2022-11-28T12:35:08;7.00;99.90
15259;DHT22;34462;51.368;12.364;2022-11-28T12:37:57;7.10;99.90
15259;DHT22;34462;51.368;12.364;2022-11-28T12:40:52;7.00;99.90
15259;DHT22;34462;51.368;12.364;2022-11-28T12:43:45;7.00;99.90
15259;DHT22;34462;51.368;12.364;2022-11-28T12:46:29;7.00;99.90
15259;DHT22;34462;51.368;12.364;2022-11-28T12:49:13;7.00;99.90
15259;DHT22;34462;51.368;12.364;2022-11-28T12:51:56;7.00;99.90
15259;DHT22;34462;51.368;12.364;2022-11-28T12:55:00;7.00;99.90
15259;DHT22;34462;51.368;12.364;2022-11-28T12:57:41;6.90;99.90
15259;DHT22;34462;51.368;12.364;2022-11-28T13:00:14;7.00;99.90
15259;DHT22;34462;51.368;12.364;2022-11-28T13:03:02;7.00;99.90
15259;DHT22;34462;51.368;12.364;2022-11-28T13:05:52;7.00;99.90
15259;DHT22;34462;51.368;12.364;2022-11-28T13:08:43;7.00;99.90
15259;DHT22;34462;51.368;12.364;2022-11-28T13:11:31;7.10;99.90
15259;DHT22;34462;51.368;12.364;2022-11-28T13:14:18;7.10;99.90
15259;DHT22;34462;51.368;12.364;2022-11-28T13:17:12;7.10;99.90
15259;DHT22;34462;51.368;12.364;2022-11-28T13:19:54;7.10;99.90
15259;DHT22;34462;51.368;12.364;2022-11-28T13:22:38;7.10;99.90
15259;DHT22;34462;51.368;12.364;2022-11-28T13:25:23;7.10;99.90
15259;DHT22;34462;51.368;12.364;2022-11-28T13:28:01;7.10;99.90
15259;DHT22;34462;51.368;12.364;2022-11-28T13:30:39;7.10;99.90
15259;DHT22;34462;51.368;12.364;2022-11-28T13:33:26;7.10;99.90
15259;DHT22;34462;51.368;12.364;2022-11-28T13:36:02;7.10;99.90
15259;DHT22;34462;51.368;12.364;2022-11-28T13:38:47;7.10;99.90
15259;DHT22;34462;51.368;12.364;2022-11-28T13:41:42;7.00;99.90
15259;DHT22;34462;51.368;12.364;2022-11-28T13:44:43;7.00;99.90
15259;DHT22;34462;51.368;12.364;2022-11-28T13:47:27;7.10;99.90
15259;DHT22;34462;51.368;12.364;2022-11-28T13:50:35;7.00;99.90
15259;DHT22;34462;51.368;12.364;2022-11-28T13:53:23;7.00;99.90
15259;DHT22;34462;51.368;12.364;2022-11-28T13:58:50;6.90;99.90
15259;DHT22;34462;51.368;12.364;2022-11-28T14:01:22;7.00;99.90
15259;DHT22;34462;51.368;12.364;2022-11-28T14:04:05;6.90;99.90
15259;DHT22;34462;51.368;12.364;2022-11-28T14:06:41;6.90;99.90
15259;DHT22;34462;51.368;12.364;2022-11-28T14:09:28;6.90;99.90
15259;DHT22;34462;51.368;12.364;2022-11-28T14:12:18;6.90;99.90
15259;DHT22;34462;51.368;12.364;2022-11-28T14:15:12;6.90;99.90
15259;DHT22;34462;51.368;12.364;2022-11-28T14:18:08;6.80;99.90
15259;DHT22;34462;51.368;12.364;2022-11-28T14:21:10;6.80;99.90
15259;DHT22;34462;51.368;12.364;2022-11-28T14:23:56;6.80;99.90
15259;DHT22;34462;51.368;12.364;2022-11-28T14:26:36;6.80;99.90
15259;DHT22;34462;51.368;12.364;2022-11-28T14:29:18;6.80;99.90
15259;DHT22;34462;51.368;12.364;2022-11-28T14:31:51;6.70;99.90
15259;DHT22;34462;51.368;12.364;2022-11-28T14:34:44;6.60;99.90
15259;DHT22;34462;51.368;12.364;2022-11-28T14:37:44;6.60;99.90
15259;DHT22;34462;51.368;12.364;2022-11-28T14:43:40;6.50;99.90
15259;DHT22;34462;51.368;12.364;2022-11-28T14:46:28;6.50;99.90
15259;DHT22;34462;51.368;12.364;2022-11-28T14:49:20;6.40;99.90
15259;DHT22;34462;51.368;12.364;2022-11-28T14:55:20;6.30;99.90
15259;DHT22;34462;51.368;12.364;2022-11-28T14:57:56;6.20;99.90
15259;DHT22;34462;51.368;12.364;2022-11-28T15:00:31;6.20;99.90
15259;DHT22;34462;51.368;12.364;2022-11-28T15:03:23;6.20;99.90
15259;DHT22;34462;51.368;12.364;2022-11-28T15:06:02;6.10;99.90
15259;DHT22;34462;51.368;12.364;2022-11-28T15:08:47;6.10;99.90
15259;DHT22;34462;51.368;12.364;2022-11-28T15:11:38;6.10;99.90
15259;DHT22;34462;51.368;12.364;2022-11-28T15:14:25;6.10;99.90
15259;DHT22;34462;51.368;12.364;2022-11-28T15:16:59;6.00;99.90
15259;DHT22;34462;51.368;12.364;2022-11-28T15:19:32;6.00;99.90
15259;DHT22;34462;51.368;12.364;2022-11-28T15:22:04;6.00;99.90
15259;DHT22;34462;51.368;12.364;2022-11-28T15:24:33;6.00;99.90
15259;DHT22;34462;51.368;12.364;2022-11-28T15:27:21;6.00;99.90
15259;DHT22;34462;51.368;12.364;2022-11-28T15:29:56;6.00;99.90
15259;DHT22;34462;51.368;12.364;2022-11-28T15:32:29;6.00;99.90
15259;DHT22;34462;51.368;12.364;2022-11-28T15:35:00;6.00;99.90
15259;DHT22;34462;51.368;12.364;2022-11-28T15:37:38;5.90;99.90
15259;DHT22;34462;51.368;12.364;2022-11-28T15:40:17;5.90;99.90
15259;DHT22;34462;51.368;12.364;2022-11-28T15:42:48;5.90;99.90
15259;DHT22;34462;51.368;12.364;2022-11-28T15:45:22;5.90;99.90
15259;DHT22;34462;51.368;12.364;2022-11-28T15:47:54;5.90;99.90
15259;DHT22;34462;51.368;12.364;2022-11-28T15:50:24;5.90;99.90
15259;DHT22;34462;51.368;12.364;2022-11-28T15:52:56;5.90;99.90
15259;DHT22;34462;51.368;12.364;2022-11-28T15:55:26;5.90;99.90
15259;DHT22;34462;51.368;12.364;2022-11-28T15:58:09;5.90;99.90
15259;DHT22;34462;51.368;12.364;2022-11-28T16:00:40;5.90;99.90
15259;DHT22;34462;51.368;12.364;2022-11-28T16:03:19;5.90;99.90
15259;DHT22;34462;51.368;12.364;2022-11-28T16:05:53;5.90;99.90
15259;DHT22;34462;51.368;12.364;2022-11-28T16:08:27;5.90;99.90
15259;DHT22;34462;51.368;12.364;2022-11-28T16:10:59;6.00;99.90
15259;DHT22;34462;51.368;12.364;2022-11-28T16:13:31;5.90;99.90
15259;DHT22;34462;51.368;12.364;2022-11-28T16:16:01;6.00;99.90
15259;DHT22;34462;51.368;12.364;2022-11-28T16:18:37;6.00;99.90
15259;DHT22;34462;51.368;12.364;2022-11-28T16:21:11;6.00;99.90
15259;DHT22;34462;51.368;12.364;2022-11-28T16:23:41;5.90;99.90
15259;DHT22;34462;51.368;12.364;2022-11-28T16:26:22;5.90;99.90
15259;DHT22;34462;51.368;12.364;2022-11-28T16:29:01;5.90;99.90
15259;DHT22;34462;51.368;12.364;2022-11-28T16:31:39;5.90;99.90
15259;DHT22;34462;51.368;12.364;2022-11-28T16:34:11;5.90;99.90